Time;durP1;ratioP1;P1;durP2;ratioP2;P2;SDS_P1;SDS_P2;PMS_P1;PMS_P2;Temp;Humidity;BMP_temperature;BMP_pressure;BME280_temperature;BME280_humidity;BME280_pressure;Samples;Min_cycle;Max_cycle;Signal;HPM_P1;HPM_P2
2022/06/03 00:02:51;;;;;;;;;;;;;;;17.20;46.63;100391.28;10392330;28;19929;-63
2022/06/03 00:08:03;;;;;;;;;;;;;;;17.14;47.02;100381.19;10393516;28;20019;-62
2022/06/03 00:13:31;;;;;;;;;;;;;;;17.11;46.80;100378.84;10394916;28;19929;-62
2022/06/03 00:18:35;;;;;;;;;;;;;;;17.09;46.85;100375.47;10398119;28;19929;-63
2022/06/03 00:23:49;;;;;;;;;;;;;;;17.03;46.67;100370.75;10391580;28;19928;-62
2022/06/03 00:29:09;;;;;;;;;;;;;;;17.01;46.96;100368.22;10390534;28;20019;-62
2022/06/03 00:34:41;;;;;;;;;;;;;;;17.02;47.00;100377.13;10398079;28;20043;-62
2022/06/03 00:39:55;;;;;;;;;;;;;;;16.95;47.07;100369.72;10393870;28;19928;-62
2022/06/03 00:45:02;;;;;;;;;;;;;;;16.93;47.28;100362.81;10393949;28;20392;-62
2022/06/03 00:50:22;;;;;;;;;;;;;;;16.91;47.37;100360.28;10392218;28;20008;-62
2022/06/03 00:55:26;;;;;;;;;;;;;;;16.91;47.08;100352.22;10393413;28;20090;-62
2022/06/03 01:00:35;;;;;;;;;;;;;;;16.88;47.65;100349.03;10392951;27;19935;-62
2022/06/03 01:05:55;;;;;;;;;;;;;;;16.61;47.82;100318.63;10392865;27;19935;-63
2022/06/03 01:11:08;;;;;;;;;;;;;;;16.76;48.06;100353.81;10392823;28;19932;-60
2022/06/03 01:16:29;;;;;;;;;;;;;;;16.72;48.17;100347.94;10425166;28;19925;-63
2022/06/03 01:21:36;;;;;;;;;;;;;;;16.69;48.34;100347.38;10393807;28;19936;-63
2022/06/03 01:26:53;;;;;;;;;;;;;;;16.65;48.67;100343.31;10394151;28;20293;-62
2022/06/03 01:32:10;;;;;;;;;;;;;;;16.40;48.93;100316.34;10391143;28;19925;-65
2022/06/03 01:37:30;;;;;;;;;;;;;;;16.53;49.11;100348.13;10392968;28;19933;-62
2022/06/03 01:42:47;;;;;;;;;;;;;;;16.51;49.23;100347.47;10392109;28;20554;-62
2022/06/03 01:47:58;;;;;;;;;;;;;;;16.52;48.95;100341.94;10390888;28;19925;-62
2022/06/03 01:53:18;;;;;;;;;;;;;;;16.47;49.09;100346.97;10353033;28;20024;-61
2022/06/03 01:58:19;;;;;;;;;;;;;;;16.45;49.25;100351.63;10354589;28;19939;-62
2022/06/03 02:03:32;;;;;;;;;;;;;;;16.39;49.43;100352.28;10351938;28;19933;-62
2022/06/03 02:08:46;;;;;;;;;;;;;;;16.32;49.51;100340.47;10387453;28;19929;-62
2022/06/03 02:13:47;;;;;;;;;;;;;;;16.35;49.68;100335.63;10422645;28;20023;-62
2022/06/03 02:19:07;;;;;;;;;;;;;;;16.40;49.61;100332.47;10388913;28;19929;-62
2022/06/03 02:24:15;;;;;;;;;;;;;;;16.44;49.62;100333.84;10388847;28;20007;-61
2022/06/03 02:35:00;;;;;;;;;;;;;;;16.49;49.10;100325.31;10388155;28;19966;-62
2022/06/03 02:40:20;;;;;;;;;;;;;;;16.50;48.94;100333.19;10385641;28;22049;-62
2022/06/03 02:45:40;;;;;;;;;;;;;;;16.48;48.94;100334.34;10385585;28;20015;-62
2022/06/03 02:50:53;;;;;;;;;;;;;;;16.47;49.55;100322.78;10383492;28;19939;-62
2022/06/03 02:56:03;;;;;;;;;;;;;;;16.44;48.91;100309.66;10395131;28;20020;-62
2022/06/03 03:01:11;;;;;;;;;;;;;;;16.38;49.08;100313.00;10420789;28;19929;-62
2022/06/03 03:06:16;;;;;;;;;;;;;;;16.19;49.33;100312.19;10389778;28;19929;-63
2022/06/03 03:11:43;;;;;;;;;;;;;;;16.14;50.24;100311.84;10395482;28;20018;-62
2022/06/03 03:16:48;;;;;;;;;;;;;;;15.93;50.38;100320.25;10394162;28;19943;-62
2022/06/03 03:21:49;;;;;;;;;;;;;;;15.97;50.76;100315.41;10390403;28;19961;-63
2022/06/03 03:26:53;;;;;;;;;;;;;;;16.02;50.69;100324.69;10390189;28;19935;-63
2022/06/03 03:32:13;;;;;;;;;;;;;;;16.00;50.87;100323.16;10386756;28;20615;-62
2022/06/03 03:37:29;;;;;;;;;;;;;;;15.99;50.71;100321.44;10390934;28;20379;-62
2022/06/03 03:42:49;;;;;;;;;;;;;;;15.98;51.09;100306.38;10389594;28;19975;-62
2022/06/03 03:48:12;;;;;;;;;;;;;;;15.93;51.13;100314.03;10387051;28;19935;-63
2022/06/03 03:53:16;;;;;;;;;;;;;;;15.89;51.18;100303.63;10389464;28;19929;-64
2022/06/03 03:58:26;;;;;;;;;;;;;;;15.90;51.19;100305.31;10387679;28;20387;-62
2022/06/03 04:03:41;;;;;;;;;;;;;;;15.80;51.20;100311.78;10385230;28;19932;-62
2022/06/03 04:08:53;;;;;;;;;;;;;;;15.81;51.66;100308.94;10383737;28;19935;-62
2022/06/03 04:14:26;;;;;;;;;;;;;;;15.91;51.12;100306.13;10388219;28;19929;-62
2022/06/03 04:19:42;;;;;;;;;;;;;;;15.89;51.32;100294.72;10387173;28;20618;-62
2022/06/03 04:24:43;;;;;;;;;;;;;;;15.93;51.03;100289.88;10388038;28;19928;-63
2022/06/03 04:29:57;;;;;;;;;;;;;;;15.90;51.26;100289.19;10391983;28;20008;-63
2022/06/03 04:35:17;;;;;;;;;;;;;;;15.93;51.24;100288.06;10391180;28;19928;-62
2022/06/03 04:40:37;;;;;;;;;;;;;;;15.96;51.29;100281.50;10397880;28;20561;-63
2022/06/03 04:46:07;;;;;;;;;;;;;;;16.04;51.13;100290.47;10395576;28;19929;-62
2022/06/03 04:51:25;;;;;;;;;;;;;;;16.12;51.64;100291.50;10393860;28;19928;-63
2022/06/03 04:56:32;;;;;;;;;;;;;;;16.08;51.13;100293.69;10370490;28;19933;-62
2022/06/03 05:01:52;;;;;;;;;;;;;;;16.19;51.08;100288.03;10381190;28;20596;-62
2022/06/03 05:07:04;;;;;;;;;;;;;;;16.26;50.64;100283.72;10389625;28;20674;-62
2022/06/03 05:12:24;;;;;;;;;;;;;;;16.34;50.67;100276.69;10422173;28;19932;-61
2022/06/03 05:17:25;;;;;;;;;;;;;;;16.48;50.51;100269.88;10392088;28;19932;-64
2022/06/03 05:22:35;;;;;;;;;;;;;;;16.58;49.76;100271.41;10395365;28;20637;-64
2022/06/03 05:27:54;;;;;;;;;;;;;;;16.64;49.90;100272.63;10393463;28;19951;-62
2022/06/03 05:33:20;;;;;;;;;;;;;;;16.69;49.82;100267.59;10394674;28;19933;-63
2022/06/03 05:38:40;;;;;;;;;;;;;;;16.77;49.16;100266.81;10393155;28;19928;-63
2022/06/03 05:44:14;;;;;;;;;;;;;;;16.90;49.04;100269.91;10393141;28;19933;-62
2022/06/03 05:49:29;;;;;;;;;;;;;;;16.93;49.19;100274.94;10370088;28;20661;-61
2022/06/03 05:54:39;;;;;;;;;;;;;;;17.09;49.02;100267.91;10392356;28;19940;-62
2022/06/03 05:59:50;;;;;;;;;;;;;;;17.24;48.56;100271.63;10391817;28;19934;-64
2022/06/03 06:04:51;;;;;;;;;;;;;;;17.38;48.52;100266.59;10396439;28;21195;-62
2022/06/03 06:10:04;;;;;;;;;;;;;;;17.45;48.33;100267.59;10395415;28;19928;-63
2022/06/03 06:15:24;;;;;;;;;;;;;;;17.56;48.27;100275.31;10427968;28;19936;-64
2022/06/03 06:20:44;;;;;;;;;;;;;;;17.60;48.22;100273.16;10399510;28;19961;-64
2022/06/03 06:25:56;;;;;;;;;;;;;;;17.82;48.22;100264.38;10394783;28;20390;-64
2022/06/03 06:31:13;;;;;;;;;;;;;;;17.92;47.47;100264.22;10384833;28;20105;-62
2022/06/03 06:36:20;;;;;;;;;;;;;;;18.01;46.87;100262.34;10391653;28;19943;-62
2022/06/03 06:41:41;;;;;;;;;;;;;;;18.17;46.60;100275.78;10388044;28;21015;-64
2022/06/03 06:46:45;;;;;;;;;;;;;;;18.29;47.25;100276.25;10347493;28;20593;-66
2022/06/03 06:52:04;;;;;;;;;;;;;;;18.47;46.41;100265.22;10388925;28;20001;-63
2022/06/03 06:57:20;;;;;;;;;;;;;;;18.77;46.37;100268.13;10383645;28;20348;-61
2022/06/03 07:02:27;;;;;;;;;;;;;;;18.97;46.10;100268.53;10383688;28;20019;-61
2022/06/03 07:07:34;;;;;;;;;;;;;;;19.10;45.38;100277.94;10394552;28;20040;-59
2022/06/03 07:12:38;;;;;;;;;;;;;;;19.25;45.32;100270.72;10400231;28;20077;-60
2022/06/03 07:23:37;;;;;;;;;;;;;;;19.55;44.72;100266.25;10394428;28;19925;-64
2022/06/03 07:28:47;;;;;;;;;;;;;;;19.54;45.17;100264.56;10386692;28;19931;-62
2022/06/03 07:33:54;;;;;;;;;;;;;;;19.66;44.70;100259.59;10385943;28;19943;-62
2022/06/03 07:38:56;;;;;;;;;;;;;;;19.54;44.64;100255.66;10385593;28;20548;-62
2022/06/03 07:44:19;;;;;;;;;;;;;;;19.63;44.90;100251.03;10386634;28;19940;-60
2022/06/03 07:49:22;;;;;;;;;;;;;;;19.83;44.30;100240.56;10390705;28;19940;-64
2022/06/03 07:54:26;;;;;;;;;;;;;;;19.90;44.39;100225.28;10393167;28;20344;-65
2022/06/03 07:59:31;;;;;;;;;;;;;;;20.11;45.06;100222.69;10392652;28;19932;-64
2022/06/03 08:04:33;;;;;;;;;;;;;;;20.18;44.90;100211.16;10443057;28;20672;-64
2022/06/03 08:14:55;;;;;;;;;;;;;;;20.54;44.20;100196.84;10407309;28;19941;-65
2022/06/03 08:19:56;;;;;;;;;;;;;;;20.73;43.64;100188.13;10411700;28;19979;-60
2022/06/03 08:24:59;;;;;;;;;;;;;;;20.90;43.87;100198.72;10399004;28;19933;-65
2022/06/03 08:30:03;;;;;;;;;;;;;;;20.92;43.59;100204.75;10393888;28;19937;-62
2022/06/03 08:35:07;;;;;;;;;;;;;;;21.27;43.50;100194.03;10394504;28;19932;-62
2022/06/03 08:40:31;;;;;;;;;;;;;;;21.53;43.26;100188.88;10392319;28;19936;-64
2022/06/03 08:45:45;;;;;;;;;;;;;;;21.74;41.13;100173.59;10391903;28;20038;-65
2022/06/03 08:50:58;;;;;;;;;;;;;;;21.86;42.32;100172.00;10396527;28;20521;-64
2022/06/03 08:56:05;;;;;;;;;;;;;;;22.12;42.17;100181.31;10401266;28;19929;-65
2022/06/03 09:01:22;;;;;;;;;;;;;;;22.39;41.52;100162.47;10391618;28;20391;-60
2022/06/03 09:06:46;;;;;;;;;;;;;;;22.41;41.39;100165.81;10398964;28;20641;-61
2022/06/03 09:11:51;;;;;;;;;;;;;;;22.58;41.87;100161.69;10402281;28;20004;-61
2022/06/03 09:16:55;;;;;;;;;;;;;;;22.98;41.20;100150.06;10393800;28;19929;-62
2022/06/03 09:22:00;;;;;;;;;;;;;;;23.10;40.53;100150.31;10392759;28;19928;-61
2022/06/03 09:27:02;;;;;;;;;;;;;;;23.24;40.72;100146.56;10392294;28;20202;-61
2022/06/03 09:32:05;;;;;;;;;;;;;;;23.57;40.15;100133.97;10396462;28;20015;-62
2022/06/03 09:37:12;;;;;;;;;;;;;;;23.67;39.99;100149.84;10398077;28;20693;-64
2022/06/03 09:42:16;;;;;;;;;;;;;;;23.86;39.71;100154.44;10404029;28;19928;-62
2022/06/03 09:47:19;;;;;;;;;;;;;;;24.03;39.52;100152.06;10435215;28;20374;-61
2022/06/03 09:52:24;;;;;;;;;;;;;;;24.31;38.70;100148.22;10398505;28;19929;-63
2022/06/03 09:57:27;;;;;;;;;;;;;;;24.34;38.94;100135.00;10398695;28;19940;-62
2022/06/03 10:02:30;;;;;;;;;;;;;;;24.74;38.61;100131.25;10396643;28;20310;-61
2022/06/03 10:07:32;;;;;;;;;;;;;;;25.17;37.35;100132.38;10401125;28;20517;-62
2022/06/03 10:12:49;;;;;;;;;;;;;;;25.56;36.70;100119.47;10402282;28;20067;-62
2022/06/03 10:17:52;;;;;;;;;;;;;;;25.92;36.01;100107.72;10391105;28;19939;-62
2022/06/03 10:22:54;;;;;;;;;;;;;;;26.38;35.91;100105.50;10391101;28;19932;-63
2022/06/03 10:28:01;;;;;;;;;;;;;;;26.61;35.17;100103.91;10396562;28;19968;-60
2022/06/03 10:33:06;;;;;;;;;;;;;;;26.83;34.57;100100.63;10390357;28;20633;-60
2022/06/03 10:38:07;;;;;;;;;;;;;;;26.94;34.68;100105.31;10394305;28;19933;-62
2022/06/03 10:43:09;;;;;;;;;;;;;;;26.91;34.86;100089.38;10390044;28;19962;-62
2022/06/03 10:48:18;;;;;;;;;;;;;;;27.37;34.60;100076.84;10388752;28;20052;-61
2022/06/03 11:04:04;;;;;;;;;;;;;;;27.56;34.49;100054.81;10378742;28;19929;-64
2022/06/03 11:09:07;;;;;;;;;;;;;;;27.64;34.94;100051.75;10384799;28;20042;-62
2022/06/03 11:14:32;;;;;;;;;;;;;;;27.67;34.50;100045.78;10383369;28;27214;-62
2022/06/03 11:19:36;;;;;;;;;;;;;;;28.10;33.96;100049.09;10341408;28;19955;-60
2022/06/03 11:24:38;;;;;;;;;;;;;;;28.27;33.97;100038.19;10344915;28;20506;-61
2022/06/03 11:29:40;;;;;;;;;;;;;;;28.27;34.30;100049.97;10348477;28;19933;-60
2022/06/03 11:34:47;;;;;;;;;;;;;;;28.26;34.29;100042.03;10350628;28;20020;-60
2022/06/03 11:39:54;;;;;;;;;;;;;;;28.18;34.25;100052.28;10346904;28;19940;-60
2022/06/03 11:45:13;;;;;;;;;;;;;;;28.17;34.34;100039.66;10347573;28;20303;-61
2022/06/03 11:50:16;;;;;;;;;;;;;;;28.35;33.99;100030.41;10345537;28;19930;-63
2022/06/03 11:55:20;;;;;;;;;;;;;;;28.39;34.19;100025.28;10348524;28;20486;-60
2022/06/03 12:00:22;;;;;;;;;;;;;;;28.35;34.19;100021.38;10339623;28;20481;-61
2022/06/03 12:05:27;;;;;;;;;;;;;;;28.16;34.04;100009.81;10343811;28;19925;-60
2022/06/03 12:10:29;;;;;;;;;;;;;;;28.25;33.88;100012.97;10380593;28;19940;-59
2022/06/03 12:15:31;;;;;;;;;;;;;;;28.53;34.08;100001.97;10343661;28;20396;-61
2022/06/03 12:20:32;;;;;;;;;;;;;;;28.80;33.62;99997.78;10339255;28;19929;-60
2022/06/03 12:25:33;;;;;;;;;;;;;;;29.01;33.32;99983.28;10344108;28;20890;-61
2022/06/03 12:30:53;;;;;;;;;;;;;;;29.09;33.06;99969.16;10346327;28;20016;-62
2022/06/03 12:36:00;;;;;;;;;;;;;;;29.51;32.18;99981.50;10339881;28;20497;-59
2022/06/03 12:41:07;;;;;;;;;;;;;;;29.60;32.50;99971.72;10383995;28;19940;-61
2022/06/03 12:46:10;;;;;;;;;;;;;;;29.62;32.81;99964.09;10387288;28;20037;-60
2022/06/03 12:51:11;;;;;;;;;;;;;;;29.51;31.89;99962.28;10387376;28;19939;-61
2022/06/03 12:56:24;;;;;;;;;;;;;;;29.61;32.20;99965.16;10391697;28;21087;-60
2022/06/03 13:01:32;;;;;;;;;;;;;;;29.86;32.62;99972.06;10384267;28;19929;-60
2022/06/03 13:06:53;;;;;;;;;;;;;;;29.83;32.26;99967.09;10380072;28;20246;-62
2022/06/03 13:11:55;;;;;;;;;;;;;;;29.74;32.13;99974.91;10383564;28;19928;-62
2022/06/03 13:16:57;;;;;;;;;;;;;;;29.66;32.05;99980.03;10390503;28;20033;-60
2022/06/03 13:21:58;;;;;;;;;;;;;;;29.38;32.69;99973.66;10385570;28;19940;-60
2022/06/03 13:27:11;;;;;;;;;;;;;;;28.95;33.81;99953.34;10384612;28;19936;-61
2022/06/03 13:32:31;;;;;;;;;;;;;;;29.06;34.09;99966.91;10383170;28;20498;-60
2022/06/03 13:37:45;;;;;;;;;;;;;;;28.94;33.55;99970.84;10389414;28;20647;-60
2022/06/03 13:43:00;;;;;;;;;;;;;;;28.77;34.64;99973.63;10391085;28;19936;-61
2022/06/03 13:48:11;;;;;;;;;;;;;;;28.47;35.85;99974.78;10393251;28;20523;-61
2022/06/03 13:53:21;;;;;;;;;;;;;;;28.30;36.06;99972.00;10388169;28;20027;-61
2022/06/03 13:58:34;;;;;;;;;;;;;;;27.94;36.79;99966.72;10387981;28;20535;-60
2022/06/03 14:03:43;;;;;;;;;;;;;;;27.73;37.53;99962.78;10392681;28;20426;-61
2022/06/03 14:08:56;;;;;;;;;;;;;;;27.81;37.73;99964.28;10390777;28;19982;-61
2022/06/03 14:14:01;;;;;;;;;;;;;;;27.78;37.96;99971.06;10390980;27;19932;-61
2022/06/03 14:19:22;;;;;;;;;;;;;;;27.36;38.05;99974.06;10390901;28;20741;-62
2022/06/03 14:24:48;;;;;;;;;;;;;;;27.11;39.09;99972.44;10394230;28;21575;-60
2022/06/03 14:29:53;;;;;;;;;;;;;;;27.06;39.40;99964.09;10390437;28;19928;-61
2022/06/03 14:34:58;;;;;;;;;;;;;;;27.04;39.30;99976.34;10392805;28;21480;-60
2022/06/03 14:40:06;;;;;;;;;;;;;;;26.96;39.71;99974.81;10384306;28;19928;-63
2022/06/03 14:45:09;;;;;;;;;;;;;;;26.92;39.28;99971.72;10384501;28;19935;-59
2022/06/03 14:50:14;;;;;;;;;;;;;;;26.66;40.57;99980.38;10389202;28;20001;-60
2022/06/03 14:55:15;;;;;;;;;;;;;;;26.40;40.71;99986.03;10388435;28;19944;-60
2022/06/03 15:00:21;;;;;;;;;;;;;;;26.38;41.03;99982.72;10376774;28;20086;-60
2022/06/03 15:05:25;;;;;;;;;;;;;;;26.34;40.99;99983.41;10382977;28;19943;-62
2022/06/03 15:10:27;;;;;;;;;;;;;;;26.32;41.28;99989.09;10334492;28;19928;-63
2022/06/03 15:15:33;;;;;;;;;;;;;;;26.24;41.45;99994.88;10336928;28;19931;-61
2022/06/03 15:20:35;;;;;;;;;;;;;;;26.10;41.42;100005.97;10336406;28;20033;-61
2022/06/03 15:25:42;;;;;;;;;;;;;;;26.04;42.19;99996.00;10349724;28;20003;-61
2022/06/03 15:30:51;;;;;;;;;;;;;;;25.88;42.94;99991.19;10383740;28;19928;-62
2022/06/03 15:35:57;;;;;;;;;;;;;;;25.75;43.38;99987.56;10387912;28;20648;-60
2022/06/03 15:41:00;;;;;;;;;;;;;;;25.55;44.63;99987.84;10387138;28;20490;-61
2022/06/03 15:46:01;;;;;;;;;;;;;;;25.10;45.87;99944.56;10386573;28;19985;-61
2022/06/03 15:51:11;;;;;;;;;;;;;;;25.21;46.21;99986.53;10381916;28;20438;-64
2022/06/03 15:56:16;;;;;;;;;;;;;;;25.32;46.90;99985.78;10384029;28;19998;-60
2022/06/03 16:01:17;;;;;;;;;;;;;;;25.38;46.50;99984.88;10382585;28;20155;-61
2022/06/03 16:06:24;;;;;;;;;;;;;;;25.35;46.24;99971.72;10396219;28;19925;-61
2022/06/03 16:11:28;;;;;;;;;;;;;;;25.45;46.34;99970.38;10386548;28;20019;-61
2022/06/03 16:16:33;;;;;;;;;;;;;;;25.40;46.27;99963.72;10390402;28;20016;-60
2022/06/03 16:21:53;;;;;;;;;;;;;;;25.47;45.89;99962.78;10407148;28;19929;-64
2022/06/03 16:27:20;;;;;;;;;;;;;;;25.35;45.93;99960.81;10429222;28;19933;-60
2022/06/03 16:32:43;;;;;;;;;;;;;;;25.31;45.61;99959.63;10401192;28;19963;-59
2022/06/03 16:38:04;;;;;;;;;;;;;;;25.32;45.44;99953.09;10400945;28;20011;-61
2022/06/03 16:43:21;;;;;;;;;;;;;;;25.37;44.98;99949.69;10393711;28;20343;-61
2022/06/03 16:48:38;;;;;;;;;;;;;;;25.30;45.23;99957.97;10392456;28;19944;-61
2022/06/03 16:53:39;;;;;;;;;;;;;;;25.26;45.21;99959.44;10394895;28;19925;-62
2022/06/03 16:58:49;;;;;;;;;;;;;;;25.24;45.07;99958.84;10397159;28;20982;-62
2022/06/03 17:03:52;;;;;;;;;;;;;;;25.10;45.99;99960.03;10394878;28;20039;-62
2022/06/03 17:08:57;;;;;;;;;;;;;;;24.99;45.68;99964.34;10390890;28;19929;-62
2022/06/03 17:14:01;;;;;;;;;;;;;;;24.89;45.99;99962.13;10396260;28;19929;-63
2022/06/03 17:19:03;;;;;;;;;;;;;;;24.78;45.91;99968.34;10396462;28;19983;-63
2022/06/03 17:24:16;;;;;;;;;;;;;;;24.68;46.81;99966.97;10392367;28;19987;-63
2022/06/03 17:29:27;;;;;;;;;;;;;;;24.57;46.93;99975.81;10428204;28;19938;-69
2022/06/03 17:34:49;;;;;;;;;;;;;;;24.57;47.27;99970.38;10399393;28;20052;-62
2022/06/03 17:39:54;;;;;;;;;;;;;;;24.51;48.32;99982.13;10397122;28;19929;-62
2022/06/03 17:45:28;;;;;;;;;;;;;;;24.46;47.90;99979.25;10399528;28;19983;-63
2022/06/03 17:50:36;;;;;;;;;;;;;;;24.46;48.24;99984.72;10378424;28;19925;-63
2022/06/03 17:55:53;;;;;;;;;;;;;;;24.43;48.15;99993.31;10394306;28;20894;-62
2022/06/03 18:01:13;;;;;;;;;;;;;;;24.31;48.58;99994.00;10387540;28;19929;-62
2022/06/03 18:06:15;;;;;;;;;;;;;;;24.29;49.00;99985.25;10393817;28;19979;-65
2022/06/03 18:11:18;;;;;;;;;;;;;;;24.27;49.75;99981.91;10391725;28;20398;-63
2022/06/03 18:16:28;;;;;;;;;;;;;;;24.27;50.28;99981.06;10386242;28;19924;-63
2022/06/03 18:21:29;;;;;;;;;;;;;;;24.14;50.70;100001.03;10386302;28;19940;-63
2022/06/03 18:26:43;;;;;;;;;;;;;;;24.11;51.27;99998.75;10389948;28;20280;-62
2022/06/03 18:31:47;;;;;;;;;;;;;;;24.07;51.64;100008.41;10390625;28;19932;-62
2022/06/03 18:37:07;;;;;;;;;;;;;;;23.97;51.22;100004.25;10391991;28;19978;-61
2022/06/03 18:42:11;;;;;;;;;;;;;;;23.93;51.44;100003.03;10393830;28;20020;-62
2022/06/03 18:47:28;;;;;;;;;;;;;;;23.87;51.23;100014.78;10387221;28;19935;-61
2022/06/03 18:52:49;;;;;;;;;;;;;;;23.87;51.04;100025.66;10384798;28;19925;-61
2022/06/03 18:58:06;;;;;;;;;;;;;;;23.85;50.78;100032.31;10384263;28;20313;-62
2022/06/03 19:03:10;;;;;;;;;;;;;;;23.79;52.09;100026.69;10388007;28;20020;-62
2022/06/03 19:08:32;;;;;;;;;;;;;;;23.79;54.64;100023.97;10383686;28;19931;-63
2022/06/03 19:13:37;;;;;;;;;;;;;;;23.79;58.75;100023.13;10391114;28;19938;-62
2022/06/03 19:18:44;;;;;;;;;;;;;;;23.71;62.03;100026.13;10389446;28;19967;-62
2022/06/03 19:23:54;;;;;;;;;;;;;;;23.57;60.75;100025.31;10416967;28;20315;-61
2022/06/03 19:29:15;;;;;;;;;;;;;;;23.47;60.16;100033.94;10391783;28;20009;-61
2022/06/03 19:34:27;;;;;;;;;;;;;;;23.35;62.24;100043.78;10390215;28;19933;-62
2022/06/03 19:39:29;;;;;;;;;;;;;;;23.30;64.52;100036.28;10392178;28;19929;-61
2022/06/03 19:44:43;;;;;;;;;;;;;;;23.26;66.60;100052.16;10393771;28;19973;-62
2022/06/03 19:50:00;;;;;;;;;;;;;;;23.21;67.14;100059.25;10408899;28;19929;-63
2022/06/03 19:55:22;;;;;;;;;;;;;;;23.15;67.97;100060.94;10389593;28;19939;-63
2022/06/03 20:00:46;;;;;;;;;;;;;;;23.12;69.17;100053.22;10395119;28;20671;-63
2022/06/03 20:05:47;;;;;;;;;;;;;;;23.06;69.25;100059.44;10390812;28;19933;-62
2022/06/03 20:11:07;;;;;;;;;;;;;;;22.99;69.30;100062.19;10392995;28;20027;-63
2022/06/03 20:16:17;;;;;;;;;;;;;;;22.95;69.76;100077.19;10405896;28;20036;-63
2022/06/03 20:21:19;;;;;;;;;;;;;;;22.91;70.92;100082.22;10394731;28;19988;-63
2022/06/03 20:26:22;;;;;;;;;;;;;;;22.84;70.93;100084.09;10404587;28;19929;-63
2022/06/03 20:31:27;;;;;;;;;;;;;;;22.76;69.92;100084.31;10429728;28;19944;-65
2022/06/03 20:36:34;;;;;;;;;;;;;;;22.69;70.07;100094.31;10418422;27;19929;-64
2022/06/03 20:41:58;;;;;;;;;;;;;;;22.63;70.72;100095.16;10399576;28;19924;-63
2022/06/03 20:47:00;;;;;;;;;;;;;;;22.56;69.73;100101.41;10398140;28;19968;-64
2022/06/03 20:52:18;;;;;;;;;;;;;;;22.55;69.85;100110.56;10401305;28;19932;-62
2022/06/03 20:57:33;;;;;;;;;;;;;;;22.53;71.10;100118.09;10392969;28;19931;-63
2022/06/03 21:02:35;;;;;;;;;;;;;;;22.50;71.75;100113.06;10401601;28;20015;-66
2022/06/03 21:13:06;;;;;;;;;;;;;;;22.44;72.00;100116.59;10399602;28;19937;-63
2022/06/03 21:18:08;;;;;;;;;;;;;;;22.39;72.11;100116.38;10398398;28;19975;-63
2022/06/03 21:23:30;;;;;;;;;;;;;;;22.37;71.90;100132.03;10393619;28;20415;-64
2022/06/03 21:28:31;;;;;;;;;;;;;;;22.37;71.64;100129.31;10394171;28;20043;-63
2022/06/03 21:34:15;;;;;;;;;;;;;;;22.33;71.12;100130.75;10395976;28;19933;-63
2022/06/03 21:39:23;;;;;;;;;;;;;;;22.25;70.55;100143.41;10392966;28;19928;-63
2022/06/03 21:44:25;;;;;;;;;;;;;;;22.24;70.93;100147.16;10396505;28;19929;-63
2022/06/03 21:49:42;;;;;;;;;;;;;;;22.24;70.57;100158.00;10398053;28;20539;-63
2022/06/03 21:54:43;;;;;;;;;;;;;;;22.15;70.52;100158.38;10390903;28;19960;-63
2022/06/03 22:00:03;;;;;;;;;;;;;;;22.09;70.31;100162.75;10395236;28;19935;-63
2022/06/03 22:05:07;;;;;;;;;;;;;;;22.04;70.36;100174.19;10395149;28;20011;-64
2022/06/03 22:10:09;;;;;;;;;;;;;;;22.00;70.21;100166.66;10395175;28;20404;-64
2022/06/03 22:15:19;;;;;;;;;;;;;;;21.94;69.91;100159.34;10396048;28;19974;-63
2022/06/03 22:20:22;;;;;;;;;;;;;;;21.81;70.09;100152.81;10389751;28;20483;-63
2022/06/03 22:25:28;;;;;;;;;;;;;;;21.71;70.22;100155.03;10392720;28;19951;-63
2022/06/03 22:30:29;;;;;;;;;;;;;;;21.73;69.72;100160.25;10397933;28;19968;-63
2022/06/03 22:35:37;;;;;;;;;;;;;;;21.70;69.65;100158.78;10396479;28;20284;-63
2022/06/03 22:40:56;;;;;;;;;;;;;;;21.68;69.48;100163.56;10397562;28;20585;-63
2022/06/03 22:45:58;;;;;;;;;;;;;;;21.64;69.35;100156.88;10399528;28;19925;-63
2022/06/03 22:50:59;;;;;;;;;;;;;;;21.63;69.46;100155.19;10392003;28;19929;-63
2022/06/03 22:56:01;;;;;;;;;;;;;;;21.61;69.94;100152.69;10397322;28;19925;-62
2022/06/03 23:01:03;;;;;;;;;;;;;;;21.57;69.79;100155.97;10394738;28;19929;-62
2022/06/03 23:06:04;;;;;;;;;;;;;;;21.53;70.32;100161.78;10391908;28;20917;-63
2022/06/03 23:11:05;;;;;;;;;;;;;;;21.52;70.31;100157.41;10390516;28;19935;-63
2022/06/03 23:16:07;;;;;;;;;;;;;;;21.51;70.46;100153.03;10396153;28;19936;-63
2022/06/03 23:21:10;;;;;;;;;;;;;;;21.47;70.76;100142.78;10389681;28;19990;-63
2022/06/03 23:26:16;;;;;;;;;;;;;;;21.42;70.74;100140.63;10390733;28;19935;-62
2022/06/03 23:31:19;;;;;;;;;;;;;;;21.39;70.95;100137.50;10385976;28;20736;-62
2022/06/03 23:36:22;;;;;;;;;;;;;;;21.36;71.19;100157.66;10389468;28;20012;-62
2022/06/03 23:46:43;;;;;;;;;;;;;;;21.36;70.80;100157.66;10393854;28;19924;-62
2022/06/03 23:51:44;;;;;;;;;;;;;;;21.34;70.66;100157.88;10393011;28;19929;-62
2022/06/03 23:57:01;;;;;;;;;;;;;;;21.35;70.56;100169.56;10389616;28;19929;-62
